createdAt,value
2022-11-29T00:00:06.821Z,8.02
2022-11-29T00:01:21.131Z,8.09
2022-11-29T00:02:23.477Z,8.08
2022-11-29T00:03:27.018Z,8.08
2022-11-29T00:04:29.363Z,8.14
2022-11-29T00:05:34.418Z,8.21
2022-11-29T00:06:37.047Z,8.35
2022-11-29T00:07:39.225Z,8.40
2022-11-29T00:08:42.892Z,8.49
2022-11-29T00:09:45.183Z,8.40
2022-11-29T00:10:47.492Z,8.15
2022-11-29T00:12:08.782Z,8.04
2022-11-29T00:13:11.134Z,8.18
2022-11-29T00:14:16.782Z,8.25
2022-11-29T00:15:19.024Z,8.11
2022-11-29T00:16:21.290Z,8.01
2022-11-29T00:17:23.600Z,8.03
2022-11-29T00:18:25.804Z,8.09
2022-11-29T00:19:28.946Z,8.24
2022-11-29T00:20:31.583Z,8.20
2022-11-29T00:21:33.917Z,8.10
2022-11-29T00:22:36.480Z,8.25
2022-11-29T00:23:38.864Z,8.31
2022-11-29T00:24:42.623Z,8.33
2022-11-29T00:25:45.323Z,8.36
2022-11-29T00:26:47.990Z,8.42
2022-11-29T00:27:51.437Z,8.44
2022-11-29T00:28:53.986Z,8.42
2022-11-29T00:29:56.173Z,8.26
2022-11-29T00:30:58.769Z,8.19
2022-11-29T00:32:01.021Z,8.20
2022-11-29T00:33:03.666Z,8.30
2022-11-29T00:34:06.956Z,8.38
2022-11-29T00:35:09.945Z,8.28
2022-11-29T00:36:12.689Z,8.27
2022-11-29T00:37:14.873Z,8.32
2022-11-29T00:38:17.131Z,8.29
2022-11-29T00:39:19.657Z,8.27
2022-11-29T00:40:21.938Z,8.18
2022-11-29T00:41:24.355Z,8.33
2022-11-29T00:42:26.751Z,8.15
2022-11-29T00:43:28.991Z,8.35
2022-11-29T00:44:31.208Z,8.35
2022-11-29T00:45:33.668Z,8.30
2022-11-29T00:46:36.585Z,8.48
2022-11-29T00:47:38.958Z,8.40
2022-11-29T00:48:41.143Z,8.40
2022-11-29T00:49:43.499Z,8.15
2022-11-29T00:50:46.177Z,8.17
2022-11-29T00:51:48.928Z,8.29
2022-11-29T00:52:51.153Z,8.37
2022-11-29T00:53:53.413Z,8.33
2022-11-29T00:54:55.586Z,8.19
2022-11-29T00:55:58.159Z,8.16
2022-11-29T00:57:00.750Z,8.12
2022-11-29T00:58:03.372Z,7.97
2022-11-29T00:59:05.687Z,7.99
2022-11-29T01:00:08.490Z,8.00
2022-11-29T01:01:11.560Z,8.03
2022-11-29T01:02:13.887Z,7.96
2022-11-29T01:03:17.060Z,7.93
2022-11-29T01:04:19.383Z,8.07
2022-11-29T01:05:21.635Z,8.23
2022-11-29T01:06:23.835Z,8.09
2022-11-29T01:07:26.073Z,8.03
2022-11-29T01:08:28.573Z,8.04
2022-11-29T01:09:30.991Z,8.15
2022-11-29T01:10:33.470Z,8.23
2022-11-29T01:11:35.892Z,8.22
2022-11-29T01:12:39.396Z,8.18
2022-11-29T01:13:42.415Z,8.20
2022-11-29T01:14:44.898Z,8.05
2022-11-29T01:15:55.730Z,8.09
2022-11-29T01:16:57.933Z,8.22
2022-11-29T01:18:00.458Z,8.14
2022-11-29T01:19:02.763Z,8.06
2022-11-29T01:20:07.383Z,7.90
2022-11-29T01:21:13.987Z,7.84
2022-11-29T01:22:16.145Z,7.92
2022-11-29T01:23:18.308Z,7.96
2022-11-29T01:24:22.196Z,8.18
2022-11-29T01:25:24.556Z,8.18
2022-11-29T01:26:29.486Z,8.25
2022-11-29T01:27:31.869Z,8.38
2022-11-29T01:28:35.059Z,8.28
2022-11-29T01:29:37.275Z,8.34
2022-11-29T01:30:39.513Z,8.38
2022-11-29T01:31:41.722Z,8.35
2022-11-29T01:32:43.945Z,8.30
2022-11-29T01:33:47.283Z,8.08
2022-11-29T01:34:50.055Z,8.02
2022-11-29T01:35:54.559Z,8.03
2022-11-29T01:36:56.805Z,7.96
2022-11-29T01:37:59.056Z,8.08
2022-11-29T01:39:03.869Z,8.09
2022-11-29T01:40:06.905Z,8.18
2022-11-29T01:41:13.570Z,8.04
2022-11-29T01:42:16.037Z,7.96
2022-11-29T01:43:18.737Z,7.88
2022-11-29T01:44:21.062Z,7.96
2022-11-29T01:45:26.444Z,7.99
2022-11-29T01:46:31.146Z,8.08
2022-11-29T01:47:36.862Z,7.92
2022-11-29T01:48:39.305Z,8.04
2022-11-29T01:49:43.905Z,8.20
2022-11-29T01:50:46.265Z,8.26
2022-11-29T01:51:55.976Z,8.08
2022-11-29T01:52:59.518Z,8.05
2022-11-29T01:54:02.280Z,8.10
2022-11-29T01:55:07.081Z,8.05
2022-11-29T01:56:10.262Z,8.02
2022-11-29T01:57:13.208Z,7.89
2022-11-29T01:58:15.521Z,7.99
2022-11-29T01:59:21.940Z,8.06
2022-11-29T02:01:48.582Z,8.14
2022-11-29T02:02:57.122Z,8.24
2022-11-29T02:03:59.632Z,8.15
2022-11-29T02:05:03.981Z,8.18
2022-11-29T02:06:07.650Z,8.26
2022-11-29T02:07:10.212Z,8.16
2022-11-29T02:08:15.261Z,8.18
2022-11-29T02:09:23.591Z,8.24
2022-11-29T02:10:59.499Z,8.39
2022-11-29T02:12:21.482Z,8.10
2022-11-29T02:13:37.410Z,8.14
2022-11-29T02:14:53.505Z,8.13
2022-11-29T02:16:34.533Z,8.01
2022-11-29T02:17:55.439Z,8.03
2022-11-29T02:19:16.230Z,8.14
2022-11-29T02:21:02.604Z,8.10
2022-11-29T02:22:23.333Z,8.24
2022-11-29T02:23:25.501Z,8.36
2022-11-29T02:24:52.170Z,8.31
2022-11-29T02:26:13.491Z,8.24
2022-11-29T02:27:30.863Z,8.32
2022-11-29T02:29:15.849Z,8.44
2022-11-29T02:30:57.515Z,8.32
2022-11-29T02:32:21.746Z,8.33
2022-11-29T02:33:28.908Z,8.38
2022-11-29T02:34:58.192Z,8.38
2022-11-29T02:36:16.024Z,8.48
2022-11-29T02:37:56.894Z,8.48
2022-11-29T02:39:26.481Z,8.48
2022-11-29T02:41:05.470Z,8.51
2022-11-29T02:42:58.624Z,8.40
2022-11-29T02:44:26.246Z,8.38
2022-11-29T02:46:16.644Z,8.47
2022-11-29T02:47:49.806Z,8.46
2022-11-29T02:48:54.760Z,8.55
2022-11-29T02:50:20.060Z,8.46
2022-11-29T02:51:41.316Z,8.42
2022-11-29T02:53:08.337Z,8.22
2022-11-29T02:54:39.110Z,8.35
2022-11-29T02:55:55.940Z,8.29
2022-11-29T02:57:17.188Z,8.20
2022-11-29T02:58:29.008Z,8.25
2022-11-29T02:59:33.896Z,8.23
2022-11-29T03:00:45.052Z,8.32
2022-11-29T03:02:02.358Z,8.48
2022-11-29T03:03:20.292Z,8.51
2022-11-29T03:04:32.614Z,8.58
2022-11-29T03:05:52.762Z,8.46
2022-11-29T03:07:30.317Z,8.52
2022-11-29T03:09:01.936Z,8.43
2022-11-29T03:10:35.161Z,8.27
2022-11-29T03:12:07.798Z,8.38
2022-11-29T03:13:52.455Z,8.19
2022-11-29T03:15:10.746Z,7.98
2022-11-29T03:17:00.235Z,8.11
2022-11-29T03:18:23.680Z,8.25
2022-11-29T03:19:31.513Z,8.19
2022-11-29T03:20:54.585Z,8.33
2022-11-29T03:22:06.339Z,8.26
2022-11-29T03:23:14.802Z,8.34
2022-11-29T03:24:40.567Z,8.31
2022-11-29T03:25:52.141Z,8.23
2022-11-29T03:27:12.850Z,8.31
2022-11-29T03:28:21.707Z,8.18
2022-11-29T03:29:32.727Z,8.18
2022-11-29T03:30:40.944Z,8.22
2022-11-29T03:32:01.874Z,8.14
2022-11-29T03:33:09.370Z,8.27
2022-11-29T03:34:45.581Z,8.23
2022-11-29T03:35:56.868Z,8.18
2022-11-29T03:37:15.467Z,8.02
2022-11-29T03:38:45.245Z,8.13
2022-11-29T03:40:06.953Z,8.07
2022-11-29T03:41:53.420Z,8.13
2022-11-29T03:43:21.206Z,8.10
2022-11-29T03:44:28.041Z,8.27
2022-11-29T03:45:36.812Z,8.30
2022-11-29T03:46:52.623Z,8.22
2022-11-29T03:48:22.193Z,7.96
2022-11-29T03:49:34.946Z,8.02
2022-11-29T03:51:12.385Z,7.89
2022-11-29T03:52:33.136Z,8.02
2022-11-29T03:53:57.221Z,8.18
2022-11-29T03:55:21.052Z,8.27
2022-11-29T03:56:30.731Z,8.20
2022-11-29T03:58:03.558Z,8.27
2022-11-29T03:59:35.114Z,8.08
2022-11-29T04:00:48.868Z,7.92
2022-11-29T04:02:13.470Z,8.13
2022-11-29T04:04:11.214Z,8.03
2022-11-29T04:05:34.823Z,8.15
2022-11-29T04:06:39.660Z,8.14
2022-11-29T04:08:11.171Z,8.24
2022-11-29T04:09:31.623Z,8.27
2022-11-29T04:10:59.468Z,8.35
2022-11-29T04:12:23.226Z,8.23
2022-11-29T04:13:56.461Z,8.02
2022-11-29T04:15:15.621Z,7.84
2022-11-29T04:16:26.630Z,7.94
2022-11-29T04:17:52.801Z,7.85
2022-11-29T04:19:20.149Z,8.01
2022-11-29T04:20:50.610Z,7.96
2022-11-29T04:22:20.526Z,7.85
2022-11-29T04:23:37.568Z,7.98
2022-11-29T04:25:12.046Z,8.08
2022-11-29T04:26:35.063Z,8.04
2022-11-29T04:27:54.968Z,7.87
2022-11-29T04:29:05.783Z,7.94
2022-11-29T04:30:23.451Z,8.09
2022-11-29T04:31:59.562Z,8.19
2022-11-29T04:33:40.376Z,8.16
2022-11-29T04:35:19.291Z,8.18
2022-11-29T04:36:57.169Z,7.95
2022-11-29T04:38:40.874Z,8.06
2022-11-29T04:39:56.926Z,8.03
2022-11-29T04:41:01.810Z,8.16
2022-11-29T04:42:35.044Z,8.25
2022-11-29T04:44:02.346Z,8.25
2022-11-29T04:45:28.691Z,8.29
2022-11-29T04:47:22.737Z,8.03
2022-11-29T04:48:44.072Z,8.26
2022-11-29T04:50:04.682Z,8.15
2022-11-29T04:51:24.400Z,8.14
2022-11-29T04:52:45.243Z,8.12
2022-11-29T04:53:59.906Z,8.30
2022-11-29T04:55:40.873Z,8.44
2022-11-29T04:56:47.590Z,8.44
2022-11-29T04:58:06.026Z,8.49
2022-11-29T04:59:39.592Z,8.54
2022-11-29T05:00:56.253Z,8.61
2022-11-29T05:02:07.454Z,8.42
2022-11-29T05:03:38.648Z,8.41
2022-11-29T05:04:44.134Z,8.26
2022-11-29T05:06:10.094Z,8.10
2022-11-29T05:07:24.845Z,8.27
2022-11-29T05:08:48.297Z,8.34
2022-11-29T05:10:28.794Z,8.23
2022-11-29T05:11:58.604Z,8.43
2022-11-29T05:13:18.841Z,8.27
2022-11-29T05:14:54.678Z,8.19
2022-11-29T05:16:27.556Z,8.18
2022-11-29T05:17:43.645Z,8.03
2022-11-29T05:19:10.653Z,8.29
2022-11-29T05:20:52.925Z,8.32
2022-11-29T05:22:18.505Z,8.09
2022-11-29T05:23:44.718Z,8.00
2022-11-29T05:24:58.036Z,8.07
2022-11-29T05:26:41.285Z,8.12
2022-11-29T05:28:10.052Z,8.26
2022-11-29T05:29:27.570Z,8.39
2022-11-29T05:30:44.642Z,8.42
2022-11-29T05:32:23.961Z,8.52
2022-11-29T05:33:42.576Z,8.47
2022-11-29T05:34:52.110Z,8.31
2022-11-29T05:36:29.476Z,8.35
2022-11-29T05:37:45.755Z,8.45
2022-11-29T05:39:08.751Z,8.36
2022-11-29T05:40:13.682Z,8.48
2022-11-29T05:41:37.505Z,8.58
2022-11-29T05:43:06.093Z,8.51
2022-11-29T05:44:27.703Z,8.57
2022-11-29T05:46:02.510Z,8.58
2022-11-29T05:47:10.028Z,8.49
2022-11-29T05:48:22.037Z,8.26
2022-11-29T05:49:32.353Z,8.32
2022-11-29T05:50:44.106Z,8.47
2022-11-29T05:52:18.205Z,8.54
2022-11-29T05:53:33.963Z,8.54
2022-11-29T05:54:45.967Z,8.44
2022-11-29T05:55:59.869Z,8.42
2022-11-29T05:57:07.762Z,8.52
2022-11-29T05:58:30.626Z,8.58
2022-11-29T05:59:38.243Z,8.45
2022-11-29T06:01:07.430Z,8.46
2022-11-29T06:02:27.616Z,8.42
2022-11-29T06:03:37.092Z,8.31
2022-11-29T06:04:51.289Z,8.29
2022-11-29T06:06:00.611Z,8.33
2022-11-29T06:07:11.606Z,8.51
2022-11-29T06:08:16.735Z,8.42
2022-11-29T06:09:33.125Z,8.59
2022-11-29T06:10:40.037Z,8.68
2022-11-29T06:11:54.866Z,8.54
2022-11-29T06:13:11.661Z,8.63
2022-11-29T06:14:32.322Z,8.66
2022-11-29T06:16:06.739Z,8.54
2022-11-29T06:17:38.576Z,8.39
2022-11-29T06:19:17.400Z,8.18
2022-11-29T06:20:42.158Z,8.33
2022-11-29T06:22:00.047Z,8.40
2022-11-29T06:23:17.727Z,8.38
2022-11-29T06:24:34.374Z,8.45
2022-11-29T06:25:43.240Z,8.36
2022-11-29T06:26:54.970Z,8.44
2022-11-29T06:28:26.881Z,8.45
2022-11-29T06:29:34.852Z,8.50
2022-11-29T06:31:02.097Z,8.34
2022-11-29T06:32:31.852Z,8.21
2022-11-29T06:33:46.977Z,8.23
2022-11-29T06:34:59.198Z,8.32
2022-11-29T06:36:16.154Z,8.38
2022-11-29T06:37:28.716Z,8.34
2022-11-29T06:38:31.153Z,8.27
2022-11-29T06:39:33.665Z,8.27
2022-11-29T06:40:36.183Z,8.32
2022-11-29T06:41:38.611Z,8.52
2022-11-29T06:42:40.840Z,8.47
2022-11-29T06:43:43.274Z,8.31
2022-11-29T06:44:46.094Z,8.10
2022-11-29T06:46:12.117Z,8.13
2022-11-29T06:47:17.059Z,8.12
2022-11-29T06:48:27.570Z,8.23
2022-11-29T06:49:46.718Z,8.20
2022-11-29T06:51:19.732Z,8.36
2022-11-29T06:52:28.750Z,8.46
2022-11-29T06:53:42.834Z,8.46
2022-11-29T06:54:50.786Z,8.31
2022-11-29T06:56:18.694Z,8.28
2022-11-29T06:57:34.246Z,8.34
2022-11-29T06:59:02.962Z,8.41
2022-11-29T07:00:11.671Z,8.36
2022-11-29T07:01:28.761Z,8.44
2022-11-29T07:02:57.082Z,8.54
2022-11-29T07:04:08.207Z,8.50
2022-11-29T07:05:27.562Z,8.44
2022-11-29T07:06:30.342Z,8.41
2022-11-29T07:07:34.561Z,8.36
2022-11-29T07:08:37.394Z,8.37
2022-11-29T07:09:40.905Z,8.42
2022-11-29T07:10:44.748Z,8.39
2022-11-29T07:11:47.863Z,8.30
2022-11-29T07:12:51.730Z,8.31
2022-11-29T07:13:54.299Z,8.24
2022-11-29T07:14:57.119Z,8.31
2022-11-29T07:16:08.536Z,8.27
2022-11-29T07:17:23.667Z,8.33
2022-11-29T07:18:40.272Z,8.35
2022-11-29T07:20:24.919Z,8.12
2022-11-29T07:21:46.045Z,8.17
2022-11-29T07:23:29.314Z,8.37
2022-11-29T07:24:53.499Z,8.47
2022-11-29T07:26:05.859Z,8.55
2022-11-29T07:27:13.883Z,8.45
2022-11-29T07:28:31.028Z,8.50
2022-11-29T07:29:42.682Z,8.52
2022-11-29T07:31:02.943Z,8.48
2022-11-29T07:32:20.998Z,8.51
2022-11-29T07:33:42.908Z,8.42
2022-11-29T07:35:04.531Z,8.30
2022-11-29T07:36:14.864Z,8.26
2022-11-29T07:38:01.626Z,8.19
2022-11-29T07:39:16.456Z,8.37
2022-11-29T07:40:24.203Z,8.45
2022-11-29T07:42:12.455Z,8.55
2022-11-29T07:43:33.762Z,8.49
2022-11-29T07:44:58.700Z,8.43
2022-11-29T07:46:01.026Z,8.41
2022-11-29T07:47:03.856Z,8.45
2022-11-29T07:48:06.903Z,8.53
2022-11-29T07:49:10.818Z,8.52
2022-11-29T07:50:13.323Z,8.60
2022-11-29T07:51:15.645Z,8.58
2022-11-29T07:52:18.097Z,8.68
2022-11-29T07:53:22.775Z,8.70
2022-11-29T07:54:26.072Z,8.71
2022-11-29T07:55:29.648Z,8.63
2022-11-29T07:56:31.853Z,8.53
2022-11-29T07:57:36.411Z,8.51
2022-11-29T07:58:39.567Z,8.58
2022-11-29T07:59:41.872Z,8.47
2022-11-29T08:00:45.307Z,8.47
2022-11-29T08:01:47.717Z,8.52
2022-11-29T08:02:50.440Z,8.60
2022-11-29T08:03:52.633Z,8.48
2022-11-29T08:04:54.913Z,8.46
2022-11-29T08:05:57.221Z,8.42
2022-11-29T08:07:00.542Z,8.57
2022-11-29T08:08:03.172Z,8.53
2022-11-29T08:09:06.777Z,8.48
2022-11-29T08:10:12.506Z,8.62
2022-11-29T08:11:15.915Z,8.61
2022-11-29T08:12:18.257Z,8.66
2022-11-29T08:13:21.295Z,8.61
2022-11-29T08:14:24.400Z,8.60
2022-11-29T08:15:26.658Z,8.66
2022-11-29T08:16:28.940Z,8.78
2022-11-29T08:17:31.183Z,8.82
2022-11-29T08:18:33.491Z,8.90
2022-11-29T08:19:35.709Z,8.93
2022-11-29T08:20:39.146Z,8.99
2022-11-29T08:21:43.946Z,9.01
2022-11-29T08:22:56.976Z,8.97
2022-11-29T08:23:59.200Z,8.99
2022-11-29T08:25:01.666Z,8.98
2022-11-29T08:26:04.360Z,9.02
2022-11-29T08:27:06.820Z,9.06
2022-11-29T08:28:09.816Z,9.05
2022-11-29T08:29:12.080Z,8.99
2022-11-29T08:30:14.561Z,8.96
2022-11-29T08:31:16.890Z,8.96
2022-11-29T08:32:19.254Z,8.95
2022-11-29T08:33:21.517Z,8.95
2022-11-29T08:34:24.346Z,9.00
2022-11-29T08:35:26.624Z,9.03
2022-11-29T08:36:28.900Z,9.03
2022-11-29T08:37:31.185Z,9.03
2022-11-29T08:38:33.449Z,9.01
2022-11-29T08:39:35.748Z,9.00
2022-11-29T08:40:37.971Z,9.08
2022-11-29T08:41:40.145Z,9.16
2022-11-29T08:42:43.240Z,9.13
2022-11-29T08:43:45.548Z,9.19
2022-11-29T08:44:48.093Z,9.12
2022-11-29T08:45:52.640Z,9.10
2022-11-29T08:47:13.815Z,9.17
2022-11-29T08:48:16.020Z,9.06
2022-11-29T08:49:18.281Z,9.10
2022-11-29T08:50:20.509Z,9.09
2022-11-29T08:51:22.799Z,9.08
2022-11-29T08:52:43.904Z,9.09
2022-11-29T08:53:51.460Z,9.02
2022-11-29T08:54:55.636Z,9.04
2022-11-29T08:56:01.457Z,9.01
2022-11-29T08:57:38.697Z,8.96
2022-11-29T08:58:26.499Z,8.89
2022-11-29T08:59:28.689Z,8.92
2022-11-29T09:00:32.125Z,8.97
2022-11-29T09:01:34.490Z,8.94
2022-11-29T09:02:37.468Z,8.89
2022-11-29T09:03:58.821Z,8.86
2022-11-29T09:05:01.080Z,8.85
2022-11-29T09:06:14.576Z,8.77
2022-11-29T09:07:17.000Z,8.84
2022-11-29T09:08:19.525Z,8.92
2022-11-29T09:09:22.075Z,8.91
2022-11-29T09:10:24.269Z,8.89
2022-11-29T09:11:27.772Z,8.91
2022-11-29T09:12:30.803Z,8.97
2022-11-29T09:13:33.050Z,8.90
2022-11-29T09:14:35.358Z,8.84
2022-11-29T09:15:38.985Z,8.83
2022-11-29T09:16:41.771Z,8.79
2022-11-29T09:17:44.110Z,8.82
2022-11-29T09:18:51.841Z,8.81
2022-11-29T09:19:54.715Z,8.80
2022-11-29T09:20:57.027Z,8.62
2022-11-29T09:21:59.390Z,8.62
2022-11-29T09:23:02.132Z,8.70
2022-11-29T09:24:06.580Z,8.72
2022-11-29T09:25:09.067Z,8.79
2022-11-29T09:26:16.049Z,8.77
2022-11-29T09:27:18.301Z,8.79
2022-11-29T09:28:20.646Z,8.78
2022-11-29T09:29:23.114Z,8.77
2022-11-29T09:30:26.518Z,8.90
2022-11-29T09:31:30.725Z,8.87
2022-11-29T09:32:34.649Z,8.69
2022-11-29T09:33:37.106Z,8.77
2022-11-29T09:34:40.112Z,8.82
2022-11-29T09:35:42.590Z,8.93
2022-11-29T09:36:45.346Z,8.94
2022-11-29T09:37:47.694Z,8.93
2022-11-29T09:38:50.198Z,8.68
2022-11-29T09:39:52.636Z,8.48
2022-11-29T09:40:57.529Z,8.52
2022-11-29T09:42:14.544Z,8.46
2022-11-29T09:43:45.805Z,8.58
2022-11-29T09:45:09.461Z,8.71
2022-11-29T09:46:17.956Z,8.83
2022-11-29T09:47:51.137Z,8.79
2022-11-29T09:49:06.474Z,8.97
2022-11-29T09:50:21.259Z,9.00
2022-11-29T09:51:44.158Z,9.02
2022-11-29T09:53:08.637Z,9.09
2022-11-29T09:54:35.931Z,9.04
2022-11-29T09:55:56.942Z,9.03
2022-11-29T09:56:59.530Z,9.04
2022-11-29T09:58:05.968Z,9.07
2022-11-29T09:59:23.307Z,9.09
2022-11-29T10:00:26.201Z,9.02
2022-11-29T10:01:33.959Z,9.02
2022-11-29T10:02:42.327Z,9.11
2022-11-29T10:03:51.968Z,9.09
2022-11-29T10:05:01.110Z,9.12
2022-11-29T10:06:19.002Z,9.03
2022-11-29T10:07:29.174Z,9.06
2022-11-29T10:08:38.195Z,9.10
2022-11-29T10:09:56.232Z,9.13
2022-11-29T10:11:38.514Z,9.18
2022-11-29T10:12:55.399Z,9.25
2022-11-29T10:14:11.829Z,9.25
2022-11-29T10:15:28.345Z,9.19
2022-11-29T10:16:43.511Z,9.19
2022-11-29T10:18:14.914Z,9.22
2022-11-29T10:19:40.769Z,9.31
2022-11-29T10:20:49.197Z,9.27
2022-11-29T10:22:00.816Z,9.36
2022-11-29T10:23:17.563Z,9.33
2022-11-29T10:24:23.261Z,9.29
2022-11-29T10:25:37.825Z,9.12
2022-11-29T10:26:41.388Z,9.06
2022-11-29T10:27:43.801Z,8.95
2022-11-29T10:28:48.777Z,8.96
2022-11-29T10:29:51.638Z,8.99
2022-11-29T10:30:55.700Z,8.89
2022-11-29T10:31:59.465Z,8.85
2022-11-29T10:33:02.618Z,8.76
2022-11-29T10:34:15.729Z,8.68
2022-11-29T10:35:20.106Z,8.70
2022-11-29T10:36:31.503Z,8.78
2022-11-29T10:37:34.798Z,8.81
2022-11-29T10:38:37.136Z,8.97
2022-11-29T10:39:45.977Z,9.07
2022-11-29T10:40:57.578Z,9.08
2022-11-29T10:42:02.496Z,9.12
2022-11-29T10:43:05.020Z,9.14
2022-11-29T10:44:10.030Z,9.13
2022-11-29T10:45:27.319Z,9.16
2022-11-29T10:46:29.606Z,9.10
2022-11-29T10:47:32.312Z,9.12
2022-11-29T10:48:34.847Z,9.15
2022-11-29T10:49:37.646Z,9.16
2022-11-29T10:50:43.931Z,9.25
2022-11-29T10:51:47.106Z,9.29
2022-11-29T10:52:49.548Z,9.26
2022-11-29T10:53:54.698Z,9.27
2022-11-29T10:54:59.595Z,9.32
2022-11-29T10:56:29.663Z,9.16
2022-11-29T10:57:32.060Z,9.06
2022-11-29T10:58:35.378Z,9.05
2022-11-29T10:59:37.633Z,9.11
2022-11-29T11:01:01.087Z,9.18
2022-11-29T11:02:04.433Z,9.34
2022-11-29T11:03:26.012Z,9.29
2022-11-29T11:04:31.220Z,9.24
2022-11-29T11:05:33.769Z,9.03
2022-11-29T11:06:56.922Z,8.99
2022-11-29T11:07:59.500Z,9.07
2022-11-29T11:09:24.774Z,9.04
2022-11-29T11:10:29.619Z,9.16
2022-11-29T11:11:33.655Z,9.09
2022-11-29T11:12:37.123Z,9.05
2022-11-29T11:13:40.992Z,8.99
2022-11-29T11:14:45.315Z,9.07
2022-11-29T11:15:48.346Z,9.03
2022-11-29T11:16:51.616Z,8.93
2022-11-29T11:18:00.944Z,8.96
2022-11-29T11:19:23.662Z,8.87
2022-11-29T11:20:29.807Z,8.75
2022-11-29T11:21:38.249Z,8.86
2022-11-29T11:22:40.887Z,8.75
2022-11-29T11:23:59.245Z,8.77
2022-11-29T11:25:24.498Z,8.78
2022-11-29T11:26:27.478Z,8.85
2022-11-29T11:27:37.250Z,8.93
2022-11-29T11:28:54.073Z,9.00
2022-11-29T11:29:56.834Z,9.06
2022-11-29T11:31:03.478Z,9.11
2022-11-29T11:32:15.930Z,9.16
2022-11-29T11:33:26.194Z,9.24
2022-11-29T11:34:36.616Z,9.25
2022-11-29T11:35:38.914Z,9.26
2022-11-29T11:36:41.528Z,9.30
2022-11-29T11:37:56.408Z,9.35
2022-11-29T11:39:11.795Z,9.41
2022-11-29T11:40:29.129Z,9.47
2022-11-29T11:41:57.638Z,9.57
2022-11-29T11:43:02.670Z,9.51
2022-11-29T11:44:14.947Z,9.46
2022-11-29T11:45:47.305Z,9.43
2022-11-29T11:46:50.972Z,9.40
2022-11-29T11:47:58.020Z,9.46
2022-11-29T11:49:00.592Z,9.55
2022-11-29T11:50:03.654Z,9.49
2022-11-29T11:51:22.303Z,9.56
2022-11-29T11:52:48.882Z,9.54
2022-11-29T11:53:57.479Z,9.55
2022-11-29T11:55:22.128Z,9.67
2022-11-29T11:56:26.325Z,9.55
2022-11-29T11:57:30.004Z,9.51
2022-11-29T11:58:37.640Z,9.36
2022-11-29T11:59:40.006Z,9.46
2022-11-29T12:01:09.898Z,9.60
2022-11-29T12:02:38.935Z,9.57
2022-11-29T12:04:05.897Z,9.52
2022-11-29T12:05:19.295Z,9.49
2022-11-29T12:06:39.866Z,9.51
2022-11-29T12:09:38.214Z,9.41
2022-11-29T12:10:41.347Z,9.47
2022-11-29T12:12:10.046Z,9.51
2022-11-29T12:13:20.672Z,9.45
2022-11-29T12:14:50.888Z,9.50
2022-11-29T12:15:56.316Z,9.65
2022-11-29T12:17:08.034Z,9.67
2022-11-29T12:18:27.075Z,9.68
2022-11-29T12:19:35.895Z,9.59
2022-11-29T12:20:50.773Z,9.65
2022-11-29T12:21:59.912Z,9.64
2022-11-29T12:23:16.802Z,9.69
2022-11-29T12:24:29.961Z,9.73
2022-11-29T12:25:39.024Z,9.69
2022-11-29T12:26:59.182Z,9.76
2022-11-29T12:28:02.072Z,9.79
2022-11-29T12:29:09.983Z,9.70
2022-11-29T12:30:14.387Z,9.67
2022-11-29T12:31:43.808Z,9.70
2022-11-29T12:32:55.737Z,9.74
2022-11-29T12:34:20.958Z,9.82
2022-11-29T12:35:48.991Z,9.78
2022-11-29T12:37:02.337Z,9.72
2022-11-29T12:38:25.756Z,9.67
2022-11-29T12:39:28.114Z,9.68
2022-11-29T12:40:40.091Z,9.66
2022-11-29T12:41:57.395Z,9.77
2022-11-29T12:43:15.319Z,9.77
2022-11-29T12:44:50.319Z,9.78
2022-11-29T12:46:11.099Z,9.78
2022-11-29T12:47:35.150Z,9.81
2022-11-29T12:49:05.302Z,9.80
2022-11-29T12:50:19.499Z,9.78
2022-11-29T12:51:29.730Z,9.84
2022-11-29T12:52:45.473Z,9.84
2022-11-29T12:54:18.504Z,9.79
2022-11-29T12:55:32.903Z,9.68
2022-11-29T12:56:47.067Z,9.64
2022-11-29T12:57:49.241Z,9.62
2022-11-29T12:59:09.421Z,9.53
2022-11-29T13:00:14.612Z,9.54
2022-11-29T13:01:42.269Z,9.56
2022-11-29T13:03:12.020Z,9.61
2022-11-29T13:04:38.762Z,9.54
2022-11-29T13:06:17.699Z,9.55
2022-11-29T13:07:35.727Z,9.56
2022-11-29T13:08:55.972Z,9.46
2022-11-29T13:10:24.354Z,9.39
2022-11-29T13:11:31.178Z,9.43
2022-11-29T13:13:03.996Z,9.44
2022-11-29T13:14:34.636Z,9.50
2022-11-29T13:15:45.145Z,9.50
2022-11-29T13:16:57.066Z,9.49
2022-11-29T13:18:18.083Z,9.53
2022-11-29T13:19:22.967Z,9.54
2022-11-29T13:20:36.885Z,9.61
2022-11-29T13:21:44.974Z,9.62
2022-11-29T13:23:15.287Z,9.53
2022-11-29T13:24:28.486Z,9.47
2022-11-29T13:25:37.275Z,9.50
2022-11-29T13:26:41.195Z,9.48
2022-11-29T13:27:58.417Z,9.40
2022-11-29T13:29:03.045Z,9.38
2022-11-29T13:30:06.100Z,9.34
2022-11-29T13:31:15.510Z,9.35
2022-11-29T13:32:40.429Z,9.35
2022-11-29T13:34:09.091Z,9.36
2022-11-29T13:35:17.203Z,9.29
2022-11-29T13:36:48.444Z,9.09
2022-11-29T13:38:21.661Z,9.05
2022-11-29T13:39:46.740Z,9.07
2022-11-29T13:40:56.154Z,9.06
2022-11-29T13:42:05.438Z,8.98
2022-11-29T13:43:55.002Z,9.08
2022-11-29T13:45:15.668Z,9.09
2022-11-29T13:46:43.414Z,9.21
2022-11-29T13:47:50.907Z,9.26
2022-11-29T13:48:54.387Z,9.21
2022-11-29T13:49:57.174Z,9.24
2022-11-29T13:51:29.849Z,9.32
2022-11-29T13:52:46.675Z,9.32
2022-11-29T13:53:49.539Z,9.39
2022-11-29T13:55:12.105Z,9.45
2022-11-29T13:56:47.618Z,9.34
2022-11-29T13:58:18.315Z,9.27
2022-11-29T13:59:31.729Z,9.27
2022-11-29T14:00:42.754Z,9.24
2022-11-29T14:01:50.683Z,9.22
2022-11-29T14:02:54.480Z,9.26
2022-11-29T14:04:14.521Z,9.35
2022-11-29T14:05:28.143Z,9.20
2022-11-29T14:06:34.936Z,9.30
2022-11-29T14:08:18.059Z,9.21
2022-11-29T14:09:26.205Z,9.14
2022-11-29T14:10:29.664Z,9.18
2022-11-29T14:11:44.565Z,9.21
2022-11-29T14:12:56.784Z,9.26
2022-11-29T14:14:10.010Z,9.23
2022-11-29T14:15:24.235Z,9.25
2022-11-29T14:16:49.043Z,9.24
2022-11-29T14:17:56.937Z,9.35
2022-11-29T14:19:08.041Z,9.29
2022-11-29T14:20:22.190Z,9.31
2022-11-29T14:21:24.422Z,9.33
2022-11-29T14:22:26.766Z,9.20
2022-11-29T14:23:36.811Z,9.19
2022-11-29T14:24:40.121Z,9.20
2022-11-29T14:26:02.199Z,9.25
2022-11-29T14:27:07.569Z,9.23
2022-11-29T14:28:12.445Z,9.22
2022-11-29T14:29:53.552Z,9.18
2022-11-29T14:30:58.206Z,9.23
2022-11-29T14:32:00.558Z,9.24
2022-11-29T14:33:16.282Z,9.27
2022-11-29T14:34:26.754Z,9.25
2022-11-29T14:35:41.818Z,9.23
2022-11-29T14:36:54.799Z,9.22
2022-11-29T14:38:05.852Z,9.17
2022-11-29T14:39:46.967Z,9.21
2022-11-29T14:40:59.232Z,9.19
2022-11-29T14:42:14.304Z,9.16
2022-11-29T14:43:34.002Z,9.22
2022-11-29T14:44:48.559Z,9.26
2022-11-29T14:46:29.457Z,9.20
2022-11-29T14:47:38.377Z,9.13
2022-11-29T14:48:55.819Z,9.17
2022-11-29T14:50:00.895Z,9.28
2022-11-29T14:51:15.381Z,9.19
2022-11-29T14:52:24.267Z,9.17
2022-11-29T14:53:36.718Z,9.30
2022-11-29T14:54:54.596Z,9.21
2022-11-29T14:56:39.041Z,9.27
2022-11-29T14:57:47.036Z,9.19
2022-11-29T14:59:27.932Z,9.17
2022-11-29T15:00:38.085Z,9.06
2022-11-29T15:01:45.557Z,8.99
2022-11-29T15:02:56.520Z,9.03
2022-11-29T15:04:06.512Z,9.09
2022-11-29T15:05:29.490Z,9.19
2022-11-29T15:06:36.944Z,9.10
2022-11-29T15:07:50.143Z,9.12
2022-11-29T15:09:00.774Z,9.08
2022-11-29T15:10:05.085Z,9.11
2022-11-29T15:11:10.110Z,9.14
2022-11-29T15:12:20.949Z,9.09
2022-11-29T15:13:28.681Z,9.09
2022-11-29T15:15:07.469Z,9.12
2022-11-29T15:16:35.383Z,9.08
2022-11-29T15:18:02.724Z,9.05
2022-11-29T15:19:36.423Z,8.98
2022-11-29T15:20:51.413Z,9.00
2022-11-29T15:22:14.471Z,9.02
2022-11-29T15:23:18.476Z,8.99
2022-11-29T15:24:26.844Z,8.96
2022-11-29T15:25:32.504Z,9.03
2022-11-29T15:26:34.915Z,9.03
2022-11-29T15:27:40.135Z,9.08
2022-11-29T15:28:42.903Z,9.02
2022-11-29T15:29:48.679Z,9.01
2022-11-29T15:31:02.867Z,8.91
2022-11-29T15:32:06.453Z,8.92
2022-11-29T15:33:23.277Z,8.94
2022-11-29T15:34:35.678Z,8.93
2022-11-29T15:35:38.426Z,8.97
2022-11-29T15:36:43.821Z,8.86
2022-11-29T15:37:48.809Z,8.89
2022-11-29T15:38:53.700Z,8.94
2022-11-29T15:40:15.695Z,8.99
2022-11-29T15:41:35.338Z,8.99
2022-11-29T15:42:47.118Z,8.99
2022-11-29T15:43:53.581Z,8.95
2022-11-29T15:44:56.131Z,8.93
2022-11-29T15:45:58.913Z,8.95
2022-11-29T15:47:22.654Z,8.96
2022-11-29T15:48:28.711Z,8.96
2022-11-29T15:49:31.497Z,8.92
2022-11-29T15:50:34.649Z,8.91
2022-11-29T15:51:39.363Z,8.96
2022-11-29T15:52:42.869Z,8.96
2022-11-29T15:53:54.034Z,8.99
2022-11-29T15:55:12.663Z,8.93
2022-11-29T15:56:31.089Z,8.95
2022-11-29T15:57:38.087Z,8.95
2022-11-29T15:58:40.676Z,8.95
2022-11-29T15:59:48.529Z,8.97
2022-11-29T16:00:52.132Z,8.94
2022-11-29T16:01:57.197Z,8.87
2022-11-29T16:03:02.566Z,8.92
2022-11-29T16:04:05.264Z,8.87
2022-11-29T16:05:14.819Z,8.96
2022-11-29T16:06:26.788Z,8.89
2022-11-29T16:07:32.628Z,8.92
2022-11-29T16:08:42.021Z,8.93
2022-11-29T16:09:53.915Z,8.97
2022-11-29T16:10:56.358Z,8.97
2022-11-29T16:12:00.259Z,9.01
2022-11-29T16:13:24.674Z,8.97
2022-11-29T16:14:31.201Z,8.94